Latest Weather Observations for Hamilton Island

IDQ60801

Issued at 9:05 pm EST Friday 24 October 2014 (issued every 30 minutes, with the page automatically refreshed every 10 minutes)

About weather observations | Map of weather stations | Latest weather observations for QLD | Other Formats
Station Details ID: 033106 Name: HAMILTON ISLAND AIRPORT Lat: -20.37 Lon: 148.95 Height: 58.66 m
Data from the previous 72 hours. | See also: Recent months at Hamilton Island
Date/Time
EST
Temp
°C
App
Temp
°C
Dew
Point
Rel
Hum
%
Delta-T
°C
Wind Press
QNH
hPa
Press
MSL
hPa
Rain
since 9 am
mm
Dir
 
Spd
km/h
Gust
km/h
Spd
kts
Gust
kts
24/09:00pm 22.5 20.0 17.2 72 3.3 ESE 26 32 14 17 1020.7 1020.4 0.0
24/08:30pm 22.5 19.3 17.2 72 3.3 ESE 30 35 16 19 1020.5 - 0.0
24/08:00pm 22.5 19.1 16.8 70 3.5 ESE 30 35 16 19 1020.1 - 0.0
24/07:30pm 22.4 19.4 16.7 70 3.5 ESE 28 32 15 17 1020.0 - 0.0
24/07:00pm 22.4 19.1 16.0 67 3.9 SE 28 33 15 18 1019.8 - 0.0
24/06:30pm 22.5 19.3 16.3 68 3.8 ESE 28 32 15 17 1019.6 - 0.0
24/06:00pm 22.7 19.3 15.8 65 4.2 ESE 28 33 15 18 1019.2 1019.0 0.0
24/05:30pm 23.0 19.5 15.6 63 4.5 ESE 28 32 15 17 1018.9 - 0.0
24/05:00pm 23.4 19.9 15.5 61 4.8 ESE 28 32 15 17 1018.5 - 0.0
24/04:30pm 23.7 20.1 15.2 59 5.1 ESE 28 35 15 19 1018.3 - 0.0
24/04:00pm 24.1 20.2 15.6 59 5.1 ESE 30 35 16 19 1018.2 - 0.0
24/03:30pm 24.4 20.5 15.6 58 5.3 ESE 30 33 16 18 1018.2 - 0.0
24/03:00pm 24.4 20.4 15.1 56 5.6 ESE 30 35 16 19 1018.4 1018.2 0.0
24/02:30pm 25.1 21.6 15.4 55 5.9 ESE 28 32 15 17 1018.6 - 0.0
24/02:00pm 25.2 21.7 15.5 55 5.9 ESE 28 32 15 17 1018.7 - 0.0
24/01:30pm 25.4 22.1 15.1 53 6.2 ESE 26 30 14 16 1019.0 - 0.0
24/01:00pm 25.7 22.9 15.4 53 6.2 ESE 24 28 13 15 1019.4 - 0.0
24/12:30pm 25.7 23.0 14.5 50 6.7 ESE 22 26 12 14 1019.6 - 0.0
24/12:00pm 25.8 22.7 14.6 50 6.7 ESE 24 28 13 15 1020.0 1019.7 0.0
24/11:30am 26.2 23.6 15.9 53 6.3 SE 24 28 13 15 1020.2 - 0.0
24/11:00am 25.4 22.5 15.1 53 6.2 SE 24 30 13 16 1020.6 - 0.0
24/10:30am 25.7 22.9 15.4 53 6.2 SE 24 28 13 15 1020.6 - 0.0
24/10:00am 25.2 22.5 16.6 59 5.3 SSE 26 32 14 17 1021.0 - 0.0
24/09:30am 25.2 23.0 16.9 60 5.1 SE 24 30 13 16 1021.1 - 0.0
24/09:00am 25.0 22.4 14.8 53 6.1 ESE 22 28 12 15 1021.1 1020.8 0.0
24/08:30am 24.5 22.0 15.1 55 5.6 SE 22 28 12 15 1021.1 - 0.0
24/08:00am 24.5 21.8 14.6 54 5.9 SE 22 28 12 15 1020.9 - 0.0
24/07:30am 24.4 21.6 15.3 57 5.5 SE 24 28 13 15 1020.6 - 0.0
24/07:00am 23.0 20.3 14.6 59 5.0 SE 22 28 12 15 1020.5 - 0.0
24/06:30am 23.0 20.8 14.8 60 4.9 SE 20 24 11 13 1020.1 - 0.0
24/06:00am 22.1 20.4 15.7 67 3.8 SE 19 22 10 12 1019.8 1019.5 0.0
24/05:30am 21.1 19.0 15.2 69 3.5 SE 20 24 11 13 1019.4 - 0.0
24/05:00am 21.2 19.1 15.1 68 3.6 SE 20 26 11 14 1018.9 - 0.0
24/04:30am 21.2 18.8 15.5 70 3.4 SE 22 26 12 14 1018.6 - 0.0
24/04:00am 21.2 18.6 14.8 67 3.8 SE 22 24 12 13 1018.4 - 0.0
24/03:30am 21.4 18.5 15.0 67 3.8 SE 24 32 13 17 1018.3 - 0.0
24/03:00am 21.4 19.0 15.3 68 3.6 SE 22 28 12 15 1018.5 1018.3 0.0
24/02:30am 21.7 18.9 14.4 63 4.3 ESE 22 26 12 14 1018.6 - 0.0
24/02:00am 21.7 19.0 14.6 64 4.2 ESE 22 26 12 14 1018.8 - 0.0
24/01:30am 21.8 18.7 14.4 63 4.3 ESE 24 30 13 16 1019.4 - 0.0
24/01:00am 21.9 18.8 14.5 63 4.4 ESE 24 28 13 15 1019.7 - 0.0
24/12:30am 22.0 19.3 15.6 67 3.8 ESE 24 30 13 16 1020.1 - 0.0
24/12:00am 22.0 19.5 15.1 65 4.1 ESE 22 28 12 15 1020.3 1020.0 0.0
 
Date/Time
EST
Temp
°C
App
Temp
°C
Dew
Point
Rel
Hum
%
Delta-T
°C
Wind Press
QNH
hPa
Press
MSL
hPa
Rain
since 9 am
mm
Dir
 
Spd
km/h
Gust
km/h
Spd
kts
Gust
kts
23/11:30pm 22.1 19.0 15.7 67 3.8 ESE 26 30 14 16 1020.6 - 0.0
23/11:00pm 22.2 20.3 16.7 71 3.4 SE 22 28 12 15 1020.8 - 0.0
23/10:30pm 22.2 19.3 16.2 69 3.6 ESE 26 32 14 17 1020.8 - 0.0
23/10:00pm 22.2 19.5 16.5 70 3.5 SE 26 30 14 16 1020.5 - 0.0
23/09:30pm 22.2 19.2 16.9 72 3.2 ESE 28 32 15 17 1020.5 - 0.0
23/09:00pm 22.3 19.1 17.2 73 3.1 ESE 30 35 16 19 1020.0 1019.7 0.0
23/08:30pm 22.0 19.0 16.9 73 3.1 ESE 28 33 15 18 1020.0 - 0.0
23/08:00pm 22.0 19.6 16.5 71 3.3 ESE 24 30 13 16 1019.6 - 0.0
23/07:30pm 22.2 19.7 17.1 73 3.1 ESE 26 32 14 17 1019.5 - 0.0
23/07:00pm 22.3 20.2 17.2 73 3.1 ESE 24 28 13 15 1019.4 - 0.0
23/06:30pm 22.3 19.7 16.8 71 3.4 ESE 26 33 14 18 1019.0 - 0.0
23/06:00pm 22.5 19.9 16.8 70 3.5 ESE 26 33 14 18 1018.8 1018.6 0.0
23/05:30pm 22.5 18.5 16.1 67 3.9 ESE 32 37 17 20 1018.2 - 0.0
23/05:00pm 22.9 19.0 16.4 67 4.0 ESE 32 37 17 20 1017.8 - 0.0
23/04:30pm 22.9 18.8 16.0 65 4.2 ESE 32 39 17 21 1017.5 - 0.0
23/04:00pm 23.8 19.8 16.6 64 4.4 ESE 33 39 18 21 1017.3 - 0.0
23/03:30pm 23.9 19.9 16.2 62 4.7 ESE 32 39 17 21 1017.3 - 0.0
23/03:00pm 24.1 19.6 15.3 58 5.3 ESE 33 39 18 21 1017.5 1017.3 0.0
23/02:30pm 24.4 20.0 15.6 58 5.3 SE 33 39 18 21 1017.7 - 0.0
23/02:00pm 25.1 20.7 15.7 56 5.7 SE 33 41 18 22 1018.0 - 0.0
23/01:30pm 25.5 21.0 16.4 57 5.6 SE 35 44 19 24 1018.1 - 0.0
23/01:00pm 25.3 19.6 14.1 50 6.6 SE 37 41 20 22 1018.4 - 0.0
23/12:30pm 25.5 20.7 15.5 54 6.1 SE 35 43 19 23 1018.8 - 0.0
23/12:00pm 25.5 20.5 16.1 56 5.7 SE 37 43 20 23 1019.1 1018.9 0.0
23/11:30am 25.5 19.5 14.3 50 6.7 SE 39 43 21 23 1019.7 - 0.0
23/11:00am 25.4 19.4 14.5 51 6.5 SE 39 46 21 25 1019.9 - 0.0
23/10:30am 26.5 21.7 15.5 50 6.7 SE 35 41 19 22 1020.2 - 0.0
23/10:00am 25.2 19.9 15.2 54 6.0 SE 37 43 20 23 1020.3 - 0.0
23/09:30am 24.8 20.5 16.8 61 4.9 SE 35 48 19 26 1020.5 - 0.0
23/09:00am 24.8 19.4 16.0 58 5.4 ESE 39 44 21 24 1020.2 1019.9 0.0
23/08:30am 25.1 20.8 16.8 60 5.1 SE 35 39 19 21 1020.3 - 0.0
23/08:00am 24.6 20.6 16.6 61 4.9 SE 33 39 18 21 1020.1 - 0.0
23/07:30am 24.1 18.9 15.6 59 5.1 SE 37 43 20 23 1019.9 - 0.0
23/07:00am 23.9 19.9 16.7 64 4.4 SE 33 43 18 23 1019.7 - 0.0
23/06:30am 23.0 18.7 16.8 68 3.8 SE 35 41 19 22 1019.4 - 0.0
23/06:00am 22.2 17.6 16.2 69 3.6 SE 35 41 19 22 1019.2 1019.0 0.0
23/05:30am 21.9 17.6 16.8 73 3.1 SE 35 43 19 23 1018.9 - 0.0
23/05:00am 21.8 16.8 16.1 70 3.4 SE 37 43 20 23 1018.7 - 0.0
23/04:30am 21.7 17.8 16.9 74 2.9 SE 33 37 18 20 1018.6 - 0.0
23/04:00am 21.6 18.4 17.2 76 2.7 SE 30 33 16 18 1018.6 - 0.0
23/03:30am 21.7 18.4 17.1 75 2.8 SE 30 35 16 19 1018.4 - 0.0
23/03:00am 21.7 18.5 17.3 76 2.7 SE 30 35 16 19 1018.6 1018.4 0.0
23/02:30am 21.7 18.9 17.3 76 2.7 SE 28 33 15 18 1018.8 - 0.0
23/02:00am 21.9 18.3 17.1 74 2.9 SE 32 39 17 21 1019.2 - 0.0
23/01:30am 22.0 18.3 16.9 73 3.1 ESE 32 37 17 20 1019.7 - 0.0
23/01:00am 22.0 18.6 16.7 72 3.2 SE 30 35 16 19 1020.0 - 0.0
23/12:30am 22.1 18.4 17.0 73 3.1 ESE 32 39 17 21 1020.4 - 0.0
23/12:00am 22.2 18.6 17.6 75 2.8 ESE 33 43 18 23 1020.6 1020.3 0.0
 
Date/Time
EST
Temp
°C
App
Temp
°C
Dew
Point
Rel
Hum
%
Delta-T
°C
Wind Press
QNH
hPa
Press
MSL
hPa
Rain
since 9 am
mm
Dir
 
Spd
km/h
Gust
km/h
Spd
kts
Gust
kts
22/11:30pm 22.1 18.1 16.8 72 3.2 ESE 33 41 18 22 1020.9 - 0.0
22/11:00pm 22.1 17.6 16.4 70 3.5 ESE 35 41 19 22 1020.9 - 0.0
22/10:30pm 22.0 17.8 16.1 69 3.6 ESE 33 41 18 22 1020.9 - 0.0
22/10:00pm 22.1 15.9 15.0 64 4.2 ESE 41 48 22 26 1020.8 - 0.0
22/09:30pm 22.2 16.5 16.2 69 3.6 SE 41 50 22 27 1020.7 - 0.0
22/09:00pm 22.2 16.3 15.8 67 3.8 ESE 41 48 22 26 1020.6 1020.3 0.0
22/08:30pm 22.1 16.8 16.4 70 3.5 ESE 39 43 21 23 1020.6 - 0.0
22/08:00pm 22.1 16.8 16.4 70 3.5 ESE 39 46 21 25 1020.3 - 0.0
22/07:30pm 22.3 17.0 17.2 73 3.1 SE 41 48 22 26 1019.9 - 0.0
22/07:00pm 22.4 16.4 16.9 71 3.4 SE 44 50 24 27 1019.8 - 0.0
22/06:30pm 22.5 17.2 17.2 72 3.3 ESE 41 46 22 25 1019.7 - 0.0
22/06:00pm 22.6 17.2 17.1 71 3.4 ESE 41 46 22 25 1019.5 1019.2 0.0
22/05:30pm 22.8 17.2 17.5 72 3.3 ESE 43 50 23 27 1019.0 - 0.0
22/05:00pm 23.1 18.5 18.0 73 3.2 SE 39 44 21 24 1019.0 - 0.0
22/04:30pm 23.9 20.0 17.9 69 3.8 SE 35 44 19 24 1018.8 - 0.0
22/04:00pm 24.2 20.6 17.7 67 4.1 ESE 33 39 18 21 1018.7 - 0.0
22/03:30pm 24.1 20.7 17.6 67 4.1 ESE 32 41 17 22 1018.6 - 0.0
22/03:00pm 23.9 19.7 17.2 66 4.1 ESE 35 41 19 22 1018.7 1018.5 0.0
22/02:30pm 23.9 20.2 16.9 65 4.3 ESE 32 39 17 21 1018.9 - 0.0
22/02:00pm 23.9 19.9 16.7 64 4.4 ESE 33 43 18 23 1019.4 - 0.0
22/01:30pm 24.3 20.1 17.1 64 4.5 ESE 35 43 19 23 1019.6 - 0.0
22/01:00pm 23.9 19.4 16.4 63 4.6 ESE 35 41 19 22 1019.9 - 0.0
22/12:30pm 25.1 21.0 17.3 62 4.9 SE 35 41 19 22 1020.3 - 0.0
22/12:00pm 25.6 20.3 17.3 60 5.2 SE 41 48 22 26 1020.8 1020.5 0.0
22/11:30am 25.5 19.6 15.8 55 5.9 SE 41 48 22 26 1021.0 - 0.0
22/11:00am 26.0 20.4 16.5 55 5.9 SE 41 48 22 26 1021.3 - 0.0
22/10:30am 25.6 20.3 16.2 56 5.8 SE 39 44 21 24 1021.5 - 0.0
22/10:00am 25.4 19.9 15.7 55 5.9 SE 39 44 21 24 1021.5 - 0.0
22/09:30am 25.0 19.2 15.9 57 5.5 ESE 41 46 22 25 1021.7 - 0.0
22/09:00am 24.8 18.5 16.2 58 5.2 SE 44 48 24 26 1021.7 1021.4 0.2
22/08:30am 24.6 19.1 16.8 62 4.8 ESE 41 48 22 26 1021.5 - 0.2
22/08:00am 23.9 17.7 16.4 63 4.6 ESE 44 50 24 27 1021.4 - 0.2
22/07:30am 23.7 15.9 16.2 63 4.6 ESE 52 59 28 32 1021.1 - 0.2
22/07:00am 23.2 16.0 16.7 67 4.0 SE 50 57 27 31 1020.8 - 0.2
22/06:30am 22.7 15.9 16.7 69 3.7 SE 48 54 26 29 1020.6 - 0.2
22/06:00am 22.4 14.7 15.5 65 4.1 ESE 50 59 27 32 1020.1 1019.8 0.2
22/05:30am 22.3 15.0 16.6 70 3.5 SE 50 59 27 32 1019.6 - 0.2
22/05:00am 22.1 14.6 16.1 69 3.6 SE 50 61 27 33 1019.5 - 0.2
22/04:30am 22.2 15.0 16.7 71 3.4 SE 50 61 27 33 1019.4 - 0.2
22/04:00am 22.2 15.8 16.9 72 3.2 SE 46 57 25 31 1019.4 - 0.2
22/03:30am 22.3 15.9 17.7 75 2.9 SE 48 56 26 30 1019.4 - 0.2
22/03:00am 22.4 15.6 17.8 75 2.9 SE 50 57 27 31 1019.5 1019.2 0.2
22/02:30am 22.4 16.3 17.5 74 3.0 SE 46 59 25 32 1019.7 - 0.2
22/02:19am 22.2 16.8 17.1 73 3.1 ESE 41 59 22 32 1019.5 - 0.2
22/02:00am 22.5 16.1 17.8 75 2.9 SE 48 56 26 30 1019.8 - 0.2
22/01:30am 22.2 15.6 17.3 74 3.0 SE 48 57 26 31 1020.1 - 0.2
22/01:00am 22.2 16.5 17.3 74 3.0 SE 43 50 23 27 1020.6 - 0.2
22/12:30am 22.2 16.0 17.3 74 3.0 SE 46 59 25 32 1021.0 - 0.2
22/12:00am 22.2 15.2 17.3 74 3.0 SE 50 57 27 31 1021.5 1021.2 0.2
 
Date/Time
EST
Temp
°C
App
Temp
°C
Dew
Point
Rel
Hum
%
Delta-T
°C
Wind Press
QNH
hPa
Press
MSL
hPa
Rain
since 9 am
mm
Dir
 
Spd
km/h
Gust
km/h
Spd
kts
Gust
kts
21/11:30pm 22.0 16.6 18.0 78 2.5 SE 43 50 23 27 1021.8 - 0.2
21/11:00pm 21.2 14.7 18.4 84 1.8 ESE 50 65 27 35 1021.9 - 0.2
21/10:30pm 22.2 16.7 18.0 77 2.6 SE 44 54 24 29 1022.0 - 0.2
21/10:00pm 21.9 14.0 17.9 78 2.5 SE 56 67 30 36 1022.0 - 0.2
21/09:52pm 22.4 16.5 18.0 76 2.7 SE 46 65 25 35 1021.9 - 0.2
21/09:30pm 22.4 15.9 17.5 74 3.0 SE 48 56 26 30 1022.0 - 0.2

Other Formats:

Comma delimited format used in spreadsheet applications
http://www.bom.gov.au/fwo/IDQ60801/IDQ60801.94368.axf

JavaScript Object Notation format (JSON) in row-major order
http://www.bom.gov.au/fwo/IDQ60801/IDQ60801.94368.json